sensor_id;sensor_type;location;lat;lon;timestamp;P1;durP1;ratioP1;P2;durP2;ratioP2
71941;SDS011;59997;53.300;-6.260;2022-09-09T00:16:32;15.32;;;4.65;;
71941;SDS011;59997;53.300;-6.260;2022-09-09T00:22:00;13.73;;;4.97;;
71941;SDS011;59997;53.300;-6.260;2022-09-09T00:24:42;14.55;;;4.38;;
71941;SDS011;59997;53.300;-6.260;2022-09-09T00:27:18;13.75;;;5.25;;
71941;SDS011;59997;53.300;-6.260;2022-09-09T00:32:28;16.33;;;6.15;;
71941;SDS011;59997;53.300;-6.260;2022-09-09T00:35:02;15.20;;;4.93;;
71941;SDS011;59997;53.300;-6.260;2022-09-09T00:38:02;13.00;;;4.90;;
71941;SDS011;59997;53.300;-6.260;2022-09-09T00:40:38;18.42;;;5.45;;
71941;SDS011;59997;53.300;-6.260;2022-09-09T00:46:26;15.95;;;6.50;;
71941;SDS011;59997;53.300;-6.260;2022-09-09T00:53:05;19.00;;;5.82;;
71941;SDS011;59997;53.300;-6.260;2022-09-09T00:58:17;18.58;;;6.15;;
71941;SDS011;59997;53.300;-6.260;2022-09-09T01:00:44;15.60;;;5.57;;
71941;SDS011;59997;53.300;-6.260;2022-09-09T01:03:53;15.95;;;5.57;;
71941;SDS011;59997;53.300;-6.260;2022-09-09T01:06:30;12.55;;;5.32;;
71941;SDS011;59997;53.300;-6.260;2022-09-09T01:11:48;11.03;;;4.67;;
71941;SDS011;59997;53.300;-6.260;2022-09-09T01:17:09;13.82;;;4.80;;
71941;SDS011;59997;53.300;-6.260;2022-09-09T01:22:35;12.90;;;5.05;;
71941;SDS011;59997;53.300;-6.260;2022-09-09T01:28:04;13.68;;;4.70;;
71941;SDS011;59997;53.300;-6.260;2022-09-09T01:30:39;17.25;;;5.13;;
71941;SDS011;59997;53.300;-6.260;2022-09-09T01:33:07;13.60;;;5.25;;
71941;SDS011;59997;53.300;-6.260;2022-09-09T01:35:48;12.00;;;5.30;;
71941;SDS011;59997;53.300;-6.260;2022-09-09T01:38:33;10.57;;;4.17;;
71941;SDS011;59997;53.300;-6.260;2022-09-09T01:41:01;13.07;;;4.68;;
71941;SDS011;59997;53.300;-6.260;2022-09-09T01:43:27;11.77;;;4.85;;
71941;SDS011;59997;53.300;-6.260;2022-09-09T01:45:56;14.93;;;5.22;;
71941;SDS011;59997;53.300;-6.260;2022-09-09T01:48:24;14.85;;;4.97;;
71941;SDS011;59997;53.300;-6.260;2022-09-09T01:50:50;13.57;;;5.17;;
71941;SDS011;59997;53.300;-6.260;2022-09-09T01:53:17;18.35;;;4.80;;
71941;SDS011;59997;53.300;-6.260;2022-09-09T02:01:32;11.88;;;4.25;;
71941;SDS011;59997;53.300;-6.260;2022-09-09T02:12:46;15.93;;;4.70;;
71941;SDS011;59997;53.300;-6.260;2022-09-09T02:15:23;13.05;;;4.45;;
71941;SDS011;59997;53.300;-6.260;2022-09-09T02:17:56;12.30;;;4.70;;
71941;SDS011;59997;53.300;-6.260;2022-09-09T02:20:23;20.30;;;5.43;;
71941;SDS011;59997;53.300;-6.260;2022-09-09T02:22:53;11.98;;;5.10;;
71941;SDS011;59997;53.300;-6.260;2022-09-09T02:25:21;12.50;;;5.03;;
71941;SDS011;59997;53.300;-6.260;2022-09-09T02:27:50;11.60;;;5.15;;
71941;SDS011;59997;53.300;-6.260;2022-09-09T02:30:18;13.00;;;4.77;;
71941;SDS011;59997;53.300;-6.260;2022-09-09T02:32:45;12.23;;;4.60;;
71941;SDS011;59997;53.300;-6.260;2022-09-09T02:35:19;14.63;;;4.55;;
71941;SDS011;59997;53.300;-6.260;2022-09-09T02:37:50;13.52;;;5.32;;
71941;SDS011;59997;53.300;-6.260;2022-09-09T02:40:18;13.73;;;5.38;;
71941;SDS011;59997;53.300;-6.260;2022-09-09T02:42:46;10.97;;;4.70;;
71941;SDS011;59997;53.300;-6.260;2022-09-09T02:45:17;14.15;;;4.60;;
71941;SDS011;59997;53.300;-6.260;2022-09-09T02:48:07;13.57;;;4.97;;
71941;SDS011;59997;53.300;-6.260;2022-09-09T02:56:39;14.17;;;4.40;;
71941;SDS011;59997;53.300;-6.260;2022-09-09T02:59:07;13.52;;;5.20;;
71941;SDS011;59997;53.300;-6.260;2022-09-09T03:01:33;10.80;;;5.15;;
71941;SDS011;59997;53.300;-6.260;2022-09-09T03:04:02;13.18;;;4.95;;
71941;SDS011;59997;53.300;-6.260;2022-09-09T03:06:30;14.52;;;5.97;;
71941;SDS011;59997;53.300;-6.260;2022-09-09T03:08:56;15.10;;;5.93;;
71941;SDS011;59997;53.300;-6.260;2022-09-09T03:11:22;13.23;;;4.90;;
71941;SDS011;59997;53.300;-6.260;2022-09-09T03:13:48;11.43;;;4.77;;
71941;SDS011;59997;53.300;-6.260;2022-09-09T03:16:14;11.68;;;4.95;;
71941;SDS011;59997;53.300;-6.260;2022-09-09T03:18:41;13.87;;;5.70;;
71941;SDS011;59997;53.300;-6.260;2022-09-09T03:21:08;13.48;;;4.95;;
71941;SDS011;59997;53.300;-6.260;2022-09-09T03:23:34;13.50;;;5.93;;
71941;SDS011;59997;53.300;-6.260;2022-09-09T03:25:59;13.48;;;4.82;;
71941;SDS011;59997;53.300;-6.260;2022-09-09T03:28:26;11.60;;;4.87;;
71941;SDS011;59997;53.300;-6.260;2022-09-09T03:31:03;12.63;;;4.82;;
71941;SDS011;59997;53.300;-6.260;2022-09-09T03:33:30;12.85;;;5.05;;
71941;SDS011;59997;53.300;-6.260;2022-09-09T03:35:57;12.98;;;4.45;;
71941;SDS011;59997;53.300;-6.260;2022-09-09T03:38:23;13.87;;;4.63;;
71941;SDS011;59997;53.300;-6.260;2022-09-09T03:40:53;12.10;;;4.00;;
71941;SDS011;59997;53.300;-6.260;2022-09-09T03:43:23;15.05;;;3.78;;
71941;SDS011;59997;53.300;-6.260;2022-09-09T03:45:50;13.02;;;3.63;;
71941;SDS011;59997;53.300;-6.260;2022-09-09T03:48:17;13.07;;;3.55;;
71941;SDS011;59997;53.300;-6.260;2022-09-09T03:50:46;13.48;;;4.13;;
71941;SDS011;59997;53.300;-6.260;2022-09-09T03:53:13;12.77;;;3.93;;
71941;SDS011;59997;53.300;-6.260;2022-09-09T03:55:43;12.63;;;3.92;;
71941;SDS011;59997;53.300;-6.260;2022-09-09T03:58:11;13.38;;;3.90;;
71941;SDS011;59997;53.300;-6.260;2022-09-09T04:00:43;10.27;;;3.85;;
71941;SDS011;59997;53.300;-6.260;2022-09-09T04:03:19;12.23;;;3.75;;
71941;SDS011;59997;53.300;-6.260;2022-09-09T04:05:44;14.10;;;4.57;;
71941;SDS011;59997;53.300;-6.260;2022-09-09T04:08:10;12.13;;;4.22;;
71941;SDS011;59997;53.300;-6.260;2022-09-09T04:10:36;10.10;;;4.03;;
71941;SDS011;59997;53.300;-6.260;2022-09-09T04:13:02;11.52;;;4.10;;
71941;SDS011;59997;53.300;-6.260;2022-09-09T04:15:29;10.95;;;4.20;;
71941;SDS011;59997;53.300;-6.260;2022-09-09T04:17:56;13.20;;;3.80;;
71941;SDS011;59997;53.300;-6.260;2022-09-09T04:20:22;10.70;;;3.80;;
71941;SDS011;59997;53.300;-6.260;2022-09-09T04:22:48;10.43;;;4.03;;
71941;SDS011;59997;53.300;-6.260;2022-09-09T04:25:13;11.00;;;3.92;;
71941;SDS011;59997;53.300;-6.260;2022-09-09T04:27:39;11.13;;;3.73;;
71941;SDS011;59997;53.300;-6.260;2022-09-09T04:30:08;10.82;;;3.72;;
71941;SDS011;59997;53.300;-6.260;2022-09-09T04:32:35;11.65;;;3.80;;
71941;SDS011;59997;53.300;-6.260;2022-09-09T04:35:01;10.33;;;3.70;;
71941;SDS011;59997;53.300;-6.260;2022-09-09T04:37:27;15.25;;;3.85;;
71941;SDS011;59997;53.300;-6.260;2022-09-09T04:39:53;10.90;;;3.97;;
71941;SDS011;59997;53.300;-6.260;2022-09-09T04:42:19;9.52;;;3.50;;
71941;SDS011;59997;53.300;-6.260;2022-09-09T04:44:44;10.97;;;4.13;;
71941;SDS011;59997;53.300;-6.260;2022-09-09T04:47:10;10.30;;;4.07;;
71941;SDS011;59997;53.300;-6.260;2022-09-09T04:49:35;10.43;;;4.47;;
71941;SDS011;59997;53.300;-6.260;2022-09-09T04:52:02;11.03;;;3.57;;
71941;SDS011;59997;53.300;-6.260;2022-09-09T04:54:28;10.70;;;3.57;;
71941;SDS011;59997;53.300;-6.260;2022-09-09T04:56:54;11.77;;;3.92;;
71941;SDS011;59997;53.300;-6.260;2022-09-09T04:59:20;15.60;;;4.77;;
71941;SDS011;59997;53.300;-6.260;2022-09-09T05:01:47;10.73;;;3.70;;
71941;SDS011;59997;53.300;-6.260;2022-09-09T05:04:16;9.45;;;3.50;;
71941;SDS011;59997;53.300;-6.260;2022-09-09T05:06:44;10.32;;;3.22;;
71941;SDS011;59997;53.300;-6.260;2022-09-09T05:09:11;11.25;;;3.28;;
71941;SDS011;59997;53.300;-6.260;2022-09-09T05:11:37;12.13;;;3.40;;
71941;SDS011;59997;53.300;-6.260;2022-09-09T05:14:03;9.85;;;2.95;;
71941;SDS011;59997;53.300;-6.260;2022-09-09T05:16:29;8.57;;;2.90;;
71941;SDS011;59997;53.300;-6.260;2022-09-09T05:18:58;8.13;;;3.00;;
71941;SDS011;59997;53.300;-6.260;2022-09-09T05:21:24;11.70;;;3.13;;
71941;SDS011;59997;53.300;-6.260;2022-09-09T05:23:53;8.18;;;3.00;;
71941;SDS011;59997;53.300;-6.260;2022-09-09T05:26:20;10.35;;;2.80;;
71941;SDS011;59997;53.300;-6.260;2022-09-09T05:28:47;9.90;;;2.88;;
71941;SDS011;59997;53.300;-6.260;2022-09-09T05:31:13;10.50;;;3.15;;
71941;SDS011;59997;53.300;-6.260;2022-09-09T05:33:40;9.70;;;2.83;;
71941;SDS011;59997;53.300;-6.260;2022-09-09T05:36:09;9.48;;;2.83;;
71941;SDS011;59997;53.300;-6.260;2022-09-09T05:38:38;9.48;;;3.97;;
71941;SDS011;59997;53.300;-6.260;2022-09-09T05:41:05;11.13;;;3.78;;
71941;SDS011;59997;53.300;-6.260;2022-09-09T05:43:30;11.30;;;3.60;;
71941;SDS011;59997;53.300;-6.260;2022-09-09T05:48:29;11.20;;;3.72;;
71941;SDS011;59997;53.300;-6.260;2022-09-09T05:50:58;11.02;;;3.97;;
71941;SDS011;59997;53.300;-6.260;2022-09-09T05:53:25;9.68;;;3.67;;
71941;SDS011;59997;53.300;-6.260;2022-09-09T05:56:02;11.77;;;4.23;;
71941;SDS011;59997;53.300;-6.260;2022-09-09T05:58:57;13.80;;;4.35;;
71941;SDS011;59997;53.300;-6.260;2022-09-09T06:01:27;11.15;;;4.22;;
71941;SDS011;59997;53.300;-6.260;2022-09-09T06:03:56;11.52;;;3.80;;
71941;SDS011;59997;53.300;-6.260;2022-09-09T06:06:23;11.50;;;4.00;;
71941;SDS011;59997;53.300;-6.260;2022-09-09T06:08:54;12.27;;;4.00;;
71941;SDS011;59997;53.300;-6.260;2022-09-09T06:11:26;11.57;;;3.88;;
71941;SDS011;59997;53.300;-6.260;2022-09-09T06:13:56;11.18;;;3.95;;
71941;SDS011;59997;53.300;-6.260;2022-09-09T06:16:25;11.23;;;3.35;;
71941;SDS011;59997;53.300;-6.260;2022-09-09T06:18:52;11.88;;;3.78;;
71941;SDS011;59997;53.300;-6.260;2022-09-09T06:21:20;11.10;;;3.90;;
71941;SDS011;59997;53.300;-6.260;2022-09-09T06:23:49;12.25;;;3.85;;
71941;SDS011;59997;53.300;-6.260;2022-09-09T06:26:19;10.13;;;3.25;;
71941;SDS011;59997;53.300;-6.260;2022-09-09T06:28:51;11.80;;;3.95;;
71941;SDS011;59997;53.300;-6.260;2022-09-09T06:31:20;9.82;;;3.80;;
71941;SDS011;59997;53.300;-6.260;2022-09-09T06:33:47;13.43;;;3.57;;
71941;SDS011;59997;53.300;-6.260;2022-09-09T06:36:15;8.55;;;3.28;;
71941;SDS011;59997;53.300;-6.260;2022-09-09T06:38:56;11.80;;;3.58;;
71941;SDS011;59997;53.300;-6.260;2022-09-09T06:41:23;11.32;;;3.40;;
71941;SDS011;59997;53.300;-6.260;2022-09-09T06:43:51;9.85;;;3.00;;
71941;SDS011;59997;53.300;-6.260;2022-09-09T06:46:18;11.10;;;3.60;;
71941;SDS011;59997;53.300;-6.260;2022-09-09T06:48:53;12.02;;;3.45;;
71941;SDS011;59997;53.300;-6.260;2022-09-09T06:51:21;10.32;;;3.92;;
71941;SDS011;59997;53.300;-6.260;2022-09-09T06:53:51;9.40;;;3.60;;
71941;SDS011;59997;53.300;-6.260;2022-09-09T06:56:30;11.67;;;3.67;;
71941;SDS011;59997;53.300;-6.260;2022-09-09T06:59:01;10.60;;;3.35;;
71941;SDS011;59997;53.300;-6.260;2022-09-09T07:01:30;9.02;;;2.85;;
71941;SDS011;59997;53.300;-6.260;2022-09-09T07:04:17;9.55;;;3.75;;
71941;SDS011;59997;53.300;-6.260;2022-09-09T07:06:44;8.03;;;2.97;;
71941;SDS011;59997;53.300;-6.260;2022-09-09T07:09:12;11.98;;;2.75;;
71941;SDS011;59997;53.300;-6.260;2022-09-09T07:11:40;8.52;;;2.90;;
71941;SDS011;59997;53.300;-6.260;2022-09-09T07:14:10;8.23;;;2.60;;
71941;SDS011;59997;53.300;-6.260;2022-09-09T07:16:40;8.18;;;3.00;;
71941;SDS011;59997;53.300;-6.260;2022-09-09T07:19:11;8.57;;;2.83;;
71941;SDS011;59997;53.300;-6.260;2022-09-09T07:21:39;8.18;;;2.50;;
71941;SDS011;59997;53.300;-6.260;2022-09-09T07:24:06;8.27;;;2.50;;
71941;SDS011;59997;53.300;-6.260;2022-09-09T07:26:39;9.40;;;2.40;;
71941;SDS011;59997;53.300;-6.260;2022-09-09T07:29:05;6.63;;;2.40;;
71941;SDS011;59997;53.300;-6.260;2022-09-09T07:31:32;7.30;;;2.50;;
71941;SDS011;59997;53.300;-6.260;2022-09-09T07:34:03;7.28;;;2.30;;
71941;SDS011;59997;53.300;-6.260;2022-09-09T07:36:31;7.30;;;2.53;;
71941;SDS011;59997;53.300;-6.260;2022-09-09T07:39:03;8.07;;;2.90;;
71941;SDS011;59997;53.300;-6.260;2022-09-09T07:41:34;7.53;;;2.42;;
71941;SDS011;59997;53.300;-6.260;2022-09-09T07:44:18;8.13;;;2.33;;
71941;SDS011;59997;53.300;-6.260;2022-09-09T07:46:46;6.40;;;2.25;;
71941;SDS011;59997;53.300;-6.260;2022-09-09T07:49:13;7.60;;;2.40;;
71941;SDS011;59997;53.300;-6.260;2022-09-09T07:51:41;6.55;;;1.83;;
71941;SDS011;59997;53.300;-6.260;2022-09-09T07:54:10;6.95;;;2.38;;
71941;SDS011;59997;53.300;-6.260;2022-09-09T07:56:38;6.53;;;2.10;;
71941;SDS011;59997;53.300;-6.260;2022-09-09T07:59:06;8.02;;;2.55;;
71941;SDS011;59997;53.300;-6.260;2022-09-09T08:01:38;6.93;;;2.22;;
71941;SDS011;59997;53.300;-6.260;2022-09-09T08:04:11;8.88;;;2.45;;
71941;SDS011;59997;53.300;-6.260;2022-09-09T08:06:44;7.18;;;2.15;;
71941;SDS011;59997;53.300;-6.260;2022-09-09T08:09:15;7.80;;;2.50;;
71941;SDS011;59997;53.300;-6.260;2022-09-09T08:11:41;6.65;;;2.15;;
71941;SDS011;59997;53.300;-6.260;2022-09-09T08:14:08;6.13;;;2.05;;
71941;SDS011;59997;53.300;-6.260;2022-09-09T08:16:36;6.47;;;2.08;;
71941;SDS011;59997;53.300;-6.260;2022-09-09T08:19:03;6.50;;;1.80;;
71941;SDS011;59997;53.300;-6.260;2022-09-09T08:21:31;7.90;;;1.67;;
71941;SDS011;59997;53.300;-6.260;2022-09-09T08:23:59;6.65;;;1.77;;
71941;SDS011;59997;53.300;-6.260;2022-09-09T08:26:29;5.30;;;1.40;;
71941;SDS011;59997;53.300;-6.260;2022-09-09T08:28:57;6.18;;;1.63;;
71941;SDS011;59997;53.300;-6.260;2022-09-09T08:31:28;4.80;;;1.50;;
71941;SDS011;59997;53.300;-6.260;2022-09-09T08:33:58;5.70;;;1.80;;
71941;SDS011;59997;53.300;-6.260;2022-09-09T08:36:26;6.30;;;1.60;;
71941;SDS011;59997;53.300;-6.260;2022-09-09T08:38:54;4.65;;;1.23;;
71941;SDS011;59997;53.300;-6.260;2022-09-09T08:43:58;5.17;;;1.00;;
71941;SDS011;59997;53.300;-6.260;2022-09-09T08:58:21;3.93;;;0.80;;
71941;SDS011;59997;53.300;-6.260;2022-09-09T09:06:48;4.30;;;0.80;;
71941;SDS011;59997;53.300;-6.260;2022-09-09T09:12:55;4.50;;;0.70;;
71941;SDS011;59997;53.300;-6.260;2022-09-09T09:15:26;5.47;;;1.10;;
71941;SDS011;59997;53.300;-6.260;2022-09-09T09:17:56;5.85;;;0.70;;
71941;SDS011;59997;53.300;-6.260;2022-09-09T09:20:38;4.85;;;1.00;;
71941;SDS011;59997;53.300;-6.260;2022-09-09T09:23:33;4.75;;;1.00;;
71941;SDS011;59997;53.300;-6.260;2022-09-09T09:26:07;5.80;;;1.03;;
71941;SDS011;59997;53.300;-6.260;2022-09-09T09:28:36;3.90;;;0.70;;
71941;SDS011;59997;53.300;-6.260;2022-09-09T09:33:52;7.22;;;0.82;;
71941;SDS011;59997;53.300;-6.260;2022-09-09T09:36:23;4.97;;;0.73;;
71941;SDS011;59997;53.300;-6.260;2022-09-09T09:38:59;5.83;;;1.00;;
71941;SDS011;59997;53.300;-6.260;2022-09-09T09:41:36;3.97;;;0.80;;
71941;SDS011;59997;53.300;-6.260;2022-09-09T09:44:05;5.85;;;0.70;;
71941;SDS011;59997;53.300;-6.260;2022-09-09T09:46:43;4.93;;;0.82;;
71941;SDS011;59997;53.300;-6.260;2022-09-09T09:49:09;5.20;;;0.93;;
71941;SDS011;59997;53.300;-6.260;2022-09-09T09:51:34;5.63;;;0.70;;
71941;SDS011;59997;53.300;-6.260;2022-09-09T09:54:45;4.57;;;0.80;;
71941;SDS011;59997;53.300;-6.260;2022-09-09T09:56:54;3.95;;;0.80;;
71941;SDS011;59997;53.300;-6.260;2022-09-09T10:02:21;4.55;;;0.63;;
71941;SDS011;59997;53.300;-6.260;2022-09-09T10:08:02;4.80;;;0.95;;
71941;SDS011;59997;53.300;-6.260;2022-09-09T10:13:47;5.10;;;1.10;;
71941;SDS011;59997;53.300;-6.260;2022-09-09T10:19:38;3.87;;;0.70;;
71941;SDS011;59997;53.300;-6.260;2022-09-09T10:22:27;3.75;;;0.70;;
71941;SDS011;59997;53.300;-6.260;2022-09-09T10:25:00;4.80;;;0.90;;
71941;SDS011;59997;53.300;-6.260;2022-09-09T10:30:47;6.78;;;0.93;;
71941;SDS011;59997;53.300;-6.260;2022-09-09T10:33:49;5.10;;;1.10;;
71941;SDS011;59997;53.300;-6.260;2022-09-09T10:36:26;7.03;;;1.00;;
71941;SDS011;59997;53.300;-6.260;2022-09-09T10:56:28;5.13;;;0.93;;
71941;SDS011;59997;53.300;-6.260;2022-09-09T11:01:31;4.40;;;1.00;;
71941;SDS011;59997;53.300;-6.260;2022-09-09T11:04:17;4.53;;;0.80;;
71941;SDS011;59997;53.300;-6.260;2022-09-09T11:07:00;3.92;;;1.00;;
71941;SDS011;59997;53.300;-6.260;2022-09-09T11:09:49;5.95;;;0.90;;
71941;SDS011;59997;53.300;-6.260;2022-09-09T11:12:23;5.32;;;0.73;;
71941;SDS011;59997;53.300;-6.260;2022-09-09T11:14:54;5.33;;;1.00;;
71941;SDS011;59997;53.300;-6.260;2022-09-09T11:17:26;4.88;;;0.80;;
71941;SDS011;59997;53.300;-6.260;2022-09-09T11:20:23;4.28;;;0.77;;
71941;SDS011;59997;53.300;-6.260;2022-09-09T11:22:52;3.80;;;0.80;;
71941;SDS011;59997;53.300;-6.260;2022-09-09T11:25:40;5.32;;;1.00;;
71941;SDS011;59997;53.300;-6.260;2022-09-09T11:36:52;5.05;;;0.80;;
71941;SDS011;59997;53.300;-6.260;2022-09-09T11:42:06;5.17;;;1.90;;
71941;SDS011;59997;53.300;-6.260;2022-09-09T11:44:41;5.20;;;1.42;;
71941;SDS011;59997;53.300;-6.260;2022-09-09T11:50:40;4.70;;;0.75;;
71941;SDS011;59997;53.300;-6.260;2022-09-09T11:52:48;4.55;;;1.00;;
71941;SDS011;59997;53.300;-6.260;2022-09-09T11:55:32;4.40;;;1.10;;
71941;SDS011;59997;53.300;-6.260;2022-09-09T11:58:01;4.53;;;1.00;;
71941;SDS011;59997;53.300;-6.260;2022-09-09T12:00:35;4.57;;;1.30;;
71941;SDS011;59997;53.300;-6.260;2022-09-09T12:03:05;4.82;;;1.20;;
71941;SDS011;59997;53.300;-6.260;2022-09-09T12:05:45;3.83;;;0.80;;
71941;SDS011;59997;53.300;-6.260;2022-09-09T12:08:16;4.63;;;1.07;;
71941;SDS011;59997;53.300;-6.260;2022-09-09T12:10:56;5.70;;;1.20;;
71941;SDS011;59997;53.300;-6.260;2022-09-09T12:13:26;5.75;;;1.08;;
71941;SDS011;59997;53.300;-6.260;2022-09-09T12:15:58;5.55;;;1.10;;
71941;SDS011;59997;53.300;-6.260;2022-09-09T12:23:54;5.05;;;1.38;;
71941;SDS011;59997;53.300;-6.260;2022-09-09T12:26:33;5.82;;;1.60;;
71941;SDS011;59997;53.300;-6.260;2022-09-09T12:29:50;4.85;;;1.15;;
71941;SDS011;59997;53.300;-6.260;2022-09-09T12:32:29;4.55;;;1.00;;
71941;SDS011;59997;53.300;-6.260;2022-09-09T12:37:56;4.57;;;0.80;;
71941;SDS011;59997;53.300;-6.260;2022-09-09T12:43:19;4.88;;;1.20;;
71941;SDS011;59997;53.300;-6.260;2022-09-09T12:45:47;4.35;;;1.20;;
71941;SDS011;59997;53.300;-6.260;2022-09-09T12:48:21;6.63;;;1.30;;
71941;SDS011;59997;53.300;-6.260;2022-09-09T12:50:55;5.32;;;1.00;;
71941;SDS011;59997;53.300;-6.260;2022-09-09T12:53:25;6.32;;;1.50;;
71941;SDS011;59997;53.300;-6.260;2022-09-09T12:56:01;4.63;;;1.38;;
71941;SDS011;59997;53.300;-6.260;2022-09-09T12:58:33;5.87;;;1.47;;
71941;SDS011;59997;53.300;-6.260;2022-09-09T13:01:02;4.80;;;1.23;;
71941;SDS011;59997;53.300;-6.260;2022-09-09T13:03:30;4.22;;;1.00;;
71941;SDS011;59997;53.300;-6.260;2022-09-09T13:05:59;4.50;;;0.93;;
71941;SDS011;59997;53.300;-6.260;2022-09-09T13:08:37;4.95;;;1.45;;
71941;SDS011;59997;53.300;-6.260;2022-09-09T13:11:06;4.10;;;1.10;;
71941;SDS011;59997;53.300;-6.260;2022-09-09T13:13:39;4.47;;;1.00;;
71941;SDS011;59997;53.300;-6.260;2022-09-09T13:16:15;4.35;;;1.00;;
71941;SDS011;59997;53.300;-6.260;2022-09-09T13:19:14;4.65;;;1.00;;
71941;SDS011;59997;53.300;-6.260;2022-09-09T13:21:41;4.97;;;1.10;;
71941;SDS011;59997;53.300;-6.260;2022-09-09T13:27:03;4.55;;;1.17;;
71941;SDS011;59997;53.300;-6.260;2022-09-09T13:29:51;6.60;;;1.30;;
71941;SDS011;59997;53.300;-6.260;2022-09-09T13:32:23;5.35;;;1.40;;
71941;SDS011;59997;53.300;-6.260;2022-09-09T13:35:00;4.03;;;1.00;;
71941;SDS011;59997;53.300;-6.260;2022-09-09T13:37:38;4.33;;;1.20;;
71941;SDS011;59997;53.300;-6.260;2022-09-09T13:40:06;4.30;;;1.00;;
71941;SDS011;59997;53.300;-6.260;2022-09-09T13:42:43;5.60;;;0.95;;
71941;SDS011;59997;53.300;-6.260;2022-09-09T13:45:20;3.75;;;0.80;;
71941;SDS011;59997;53.300;-6.260;2022-09-09T13:47:52;3.65;;;0.93;;
71941;SDS011;59997;53.300;-6.260;2022-09-09T13:52:54;3.88;;;0.68;;
71941;SDS011;59997;53.300;-6.260;2022-09-09T13:55:23;3.80;;;0.80;;
71941;SDS011;59997;53.300;-6.260;2022-09-09T13:57:54;5.15;;;1.20;;
71941;SDS011;59997;53.300;-6.260;2022-09-09T14:00:34;5.38;;;1.27;;
71941;SDS011;59997;53.300;-6.260;2022-09-09T14:03:00;6.00;;;1.10;;
71941;SDS011;59997;53.300;-6.260;2022-09-09T14:05:39;4.60;;;0.90;;
71941;SDS011;59997;53.300;-6.260;2022-09-09T14:08:05;5.72;;;1.40;;
71941;SDS011;59997;53.300;-6.260;2022-09-09T14:11:08;4.80;;;1.08;;
71941;SDS011;59997;53.300;-6.260;2022-09-09T14:13:39;5.97;;;1.30;;
71941;SDS011;59997;53.300;-6.260;2022-09-09T14:16:05;5.70;;;1.20;;
71941;SDS011;59997;53.300;-6.260;2022-09-09T14:18:31;4.95;;;1.42;;
71941;SDS011;59997;53.300;-6.260;2022-09-09T14:21:00;5.73;;;1.50;;
71941;SDS011;59997;53.300;-6.260;2022-09-09T14:23:27;5.88;;;1.48;;
71941;SDS011;59997;53.300;-6.260;2022-09-09T14:25:56;5.32;;;1.50;;
71941;SDS011;59997;53.300;-6.260;2022-09-09T14:28:23;7.65;;;1.55;;
71941;SDS011;59997;53.300;-6.260;2022-09-09T14:30:50;8.70;;;2.65;;
71941;SDS011;59997;53.300;-6.260;2022-09-09T14:33:19;5.80;;;2.20;;
71941;SDS011;59997;53.300;-6.260;2022-09-09T14:35:46;7.55;;;2.40;;
71941;SDS011;59997;53.300;-6.260;2022-09-09T14:38:12;7.00;;;1.83;;
71941;SDS011;59997;53.300;-6.260;2022-09-09T14:40:39;8.17;;;2.03;;
71941;SDS011;59997;53.300;-6.260;2022-09-09T14:43:05;6.97;;;1.90;;
71941;SDS011;59997;53.300;-6.260;2022-09-09T14:45:32;6.87;;;1.97;;
71941;SDS011;59997;53.300;-6.260;2022-09-09T14:48:01;6.70;;;1.70;;
71941;SDS011;59997;53.300;-6.260;2022-09-09T14:50:31;5.57;;;1.45;;
71941;SDS011;59997;53.300;-6.260;2022-09-09T14:53:09;5.93;;;1.30;;
71941;SDS011;59997;53.300;-6.260;2022-09-09T14:55:35;5.28;;;1.23;;
71941;SDS011;59997;53.300;-6.260;2022-09-09T14:58:02;5.47;;;1.40;;
71941;SDS011;59997;53.300;-6.260;2022-09-09T15:00:32;5.07;;;1.20;;
71941;SDS011;59997;53.300;-6.260;2022-09-09T15:02:59;4.75;;;1.10;;
71941;SDS011;59997;53.300;-6.260;2022-09-09T15:05:24;4.75;;;0.93;;
71941;SDS011;59997;53.300;-6.260;2022-09-09T15:07:58;4.35;;;1.10;;
71941;SDS011;59997;53.300;-6.260;2022-09-09T15:10:27;3.60;;;0.63;;
71941;SDS011;59997;53.300;-6.260;2022-09-09T15:12:53;4.40;;;0.90;;
71941;SDS011;59997;53.300;-6.260;2022-09-09T15:15:19;4.82;;;0.75;;
71941;SDS011;59997;53.300;-6.260;2022-09-09T15:17:45;4.03;;;0.60;;
71941;SDS011;59997;53.300;-6.260;2022-09-09T15:20:11;4.50;;;0.73;;
71941;SDS011;59997;53.300;-6.260;2022-09-09T15:22:42;4.30;;;0.70;;
71941;SDS011;59997;53.300;-6.260;2022-09-09T15:25:11;4.37;;;0.70;;
71941;SDS011;59997;53.300;-6.260;2022-09-09T15:27:40;4.75;;;0.77;;
71941;SDS011;59997;53.300;-6.260;2022-09-09T15:30:09;4.50;;;0.90;;
71941;SDS011;59997;53.300;-6.260;2022-09-09T15:32:35;5.30;;;0.70;;
71941;SDS011;59997;53.300;-6.260;2022-09-09T15:35:04;4.15;;;0.70;;
71941;SDS011;59997;53.300;-6.260;2022-09-09T15:37:33;5.57;;;1.10;;
71941;SDS011;59997;53.300;-6.260;2022-09-09T15:40:00;4.70;;;0.95;;
71941;SDS011;59997;53.300;-6.260;2022-09-09T15:42:26;4.30;;;0.70;;
71941;SDS011;59997;53.300;-6.260;2022-09-09T15:44:53;4.47;;;0.70;;
71941;SDS011;59997;53.300;-6.260;2022-09-09T15:47:18;4.07;;;0.90;;
71941;SDS011;59997;53.300;-6.260;2022-09-09T15:49:45;4.45;;;0.80;;
71941;SDS011;59997;53.300;-6.260;2022-09-09T15:52:12;4.83;;;0.70;;
71941;SDS011;59997;53.300;-6.260;2022-09-09T15:54:39;5.53;;;0.80;;
71941;SDS011;59997;53.300;-6.260;2022-09-09T15:57:11;4.60;;;0.80;;
71941;SDS011;59997;53.300;-6.260;2022-09-09T16:02:35;4.23;;;0.67;;
71941;SDS011;59997;53.300;-6.260;2022-09-09T16:05:03;4.75;;;0.80;;
71941;SDS011;59997;53.300;-6.260;2022-09-09T16:07:32;6.00;;;0.80;;
71941;SDS011;59997;53.300;-6.260;2022-09-09T16:10:03;5.10;;;0.95;;
71941;SDS011;59997;53.300;-6.260;2022-09-09T16:12:31;4.75;;;0.95;;
71941;SDS011;59997;53.300;-6.260;2022-09-09T16:14:59;4.43;;;1.00;;
71941;SDS011;59997;53.300;-6.260;2022-09-09T16:17:32;4.47;;;0.95;;
71941;SDS011;59997;53.300;-6.260;2022-09-09T16:20:04;4.65;;;0.82;;
71941;SDS011;59997;53.300;-6.260;2022-09-09T16:22:33;6.03;;;0.90;;
71941;SDS011;59997;53.300;-6.260;2022-09-09T16:24:59;4.27;;;1.00;;
71941;SDS011;59997;53.300;-6.260;2022-09-09T16:27:24;4.20;;;1.00;;
71941;SDS011;59997;53.300;-6.260;2022-09-09T16:29:51;6.93;;;1.00;;
71941;SDS011;59997;53.300;-6.260;2022-09-09T16:32:18;4.20;;;0.90;;
71941;SDS011;59997;53.300;-6.260;2022-09-09T16:34:47;4.45;;;0.82;;
71941;SDS011;59997;53.300;-6.260;2022-09-09T16:37:13;4.57;;;0.80;;
71941;SDS011;59997;53.300;-6.260;2022-09-09T16:39:39;5.00;;;0.93;;
71941;SDS011;59997;53.300;-6.260;2022-09-09T16:42:05;4.95;;;0.98;;
71941;SDS011;59997;53.300;-6.260;2022-09-09T16:44:36;4.13;;;0.73;;
71941;SDS011;59997;53.300;-6.260;2022-09-09T16:47:02;4.63;;;0.73;;
71941;SDS011;59997;53.300;-6.260;2022-09-09T16:49:29;4.55;;;0.90;;
71941;SDS011;59997;53.300;-6.260;2022-09-09T16:51:56;4.32;;;0.88;;
71941;SDS011;59997;53.300;-6.260;2022-09-09T16:54:23;5.72;;;0.68;;
71941;SDS011;59997;53.300;-6.260;2022-09-09T16:56:53;4.57;;;0.77;;
71941;SDS011;59997;53.300;-6.260;2022-09-09T16:59:19;5.93;;;0.83;;
71941;SDS011;59997;53.300;-6.260;2022-09-09T17:01:47;5.47;;;0.70;;
71941;SDS011;59997;53.300;-6.260;2022-09-09T17:04:15;4.03;;;0.90;;
71941;SDS011;59997;53.300;-6.260;2022-09-09T17:06:45;4.88;;;0.80;;
71941;SDS011;59997;53.300;-6.260;2022-09-09T17:09:15;4.82;;;0.90;;
71941;SDS011;59997;53.300;-6.260;2022-09-09T17:11:42;4.93;;;1.00;;
71941;SDS011;59997;53.300;-6.260;2022-09-09T17:14:08;4.30;;;0.98;;
71941;SDS011;59997;53.300;-6.260;2022-09-09T17:16:36;6.15;;;0.90;;
71941;SDS011;59997;53.300;-6.260;2022-09-09T17:19:04;4.00;;;0.83;;
71941;SDS011;59997;53.300;-6.260;2022-09-09T17:21:31;4.88;;;1.00;;
71941;SDS011;59997;53.300;-6.260;2022-09-09T17:24:02;4.07;;;1.00;;
71941;SDS011;59997;53.300;-6.260;2022-09-09T17:26:28;5.20;;;0.90;;
71941;SDS011;59997;53.300;-6.260;2022-09-09T17:28:58;5.65;;;0.85;;
71941;SDS011;59997;53.300;-6.260;2022-09-09T17:31:26;6.17;;;1.20;;
71941;SDS011;59997;53.300;-6.260;2022-09-09T17:33:52;8.00;;;1.00;;